createdAt,value
2023-06-05T00:00:22.634Z,0.50
2023-06-05T00:01:22.704Z,0.50
2023-06-05T00:02:22.817Z,0.40
2023-06-05T00:03:23.022Z,0.36
2023-06-05T00:04:22.999Z,0.35
2023-06-05T00:05:22.940Z,0.36
2023-06-05T00:06:22.988Z,0.37
2023-06-05T00:07:23.042Z,0.40
2023-06-05T00:08:23.108Z,0.44
2023-06-05T00:09:23.169Z,0.50
2023-06-05T00:10:23.244Z,0.50
2023-06-05T00:11:23.306Z,0.51
2023-06-05T00:12:23.362Z,0.50
2023-06-05T00:13:23.434Z,0.50
2023-06-05T00:14:23.499Z,0.50
2023-06-05T00:15:23.536Z,0.50
2023-06-05T00:16:23.628Z,0.51
2023-06-05T00:17:23.705Z,0.50
2023-06-05T00:18:23.671Z,0.51
2023-06-05T00:19:23.717Z,0.51
2023-06-05T00:20:23.762Z,0.50
2023-06-05T00:21:23.811Z,0.50
2023-06-05T00:22:23.839Z,0.50
2023-06-05T00:23:23.912Z,0.50
2023-06-05T00:24:23.922Z,0.51
2023-06-05T00:25:23.991Z,0.51
2023-06-05T00:26:24.011Z,0.50
2023-06-05T00:27:24.041Z,0.50
2023-06-05T00:28:24.077Z,0.51
2023-06-05T00:29:24.186Z,0.51
2023-06-05T00:30:24.131Z,0.51
2023-06-05T00:31:24.197Z,0.51
2023-06-05T00:32:24.241Z,0.51
2023-06-05T00:33:24.858Z,0.51
2023-06-05T00:34:24.648Z,0.51
2023-06-05T00:35:24.649Z,0.50
2023-06-05T00:36:24.654Z,0.50
2023-06-05T00:37:24.645Z,0.51
2023-06-05T00:38:24.649Z,0.51
2023-06-05T00:39:24.676Z,0.52
2023-06-05T00:40:24.649Z,0.52
2023-06-05T00:41:24.651Z,0.50
2023-06-05T00:42:24.655Z,0.51
2023-06-05T00:43:24.666Z,0.50
2023-06-05T00:44:24.666Z,0.51
2023-06-05T00:45:24.658Z,0.50
2023-06-05T00:46:24.790Z,0.51
2023-06-05T00:47:24.683Z,0.51
2023-06-05T00:48:24.688Z,0.51
2023-06-05T00:49:24.732Z,0.50
2023-06-05T00:50:24.788Z,0.50
2023-06-05T00:51:24.793Z,0.51
2023-06-05T00:52:24.834Z,0.51
2023-06-05T00:53:24.892Z,0.52
2023-06-05T00:54:24.944Z,0.51
2023-06-05T00:55:24.978Z,0.51
2023-06-05T00:56:25.055Z,0.51
2023-06-05T00:57:25.083Z,0.50
2023-06-05T00:58:25.121Z,0.50
2023-06-05T00:59:25.151Z,0.50
2023-06-05T01:00:25.552Z,0.50
2023-06-05T01:01:25.652Z,0.51
2023-06-05T01:02:25.635Z,0.50
2023-06-05T01:03:25.653Z,0.51
2023-06-05T01:04:25.586Z,0.50
2023-06-05T01:05:25.611Z,0.51
2023-06-05T01:06:25.589Z,0.51
2023-06-05T01:07:25.588Z,0.51
2023-06-05T01:08:25.589Z,0.52
2023-06-05T01:09:25.602Z,0.51
2023-06-05T01:10:25.594Z,0.51
2023-06-05T01:11:25.589Z,0.50
2023-06-05T01:12:25.594Z,0.51
2023-06-05T01:13:25.592Z,0.51
2023-06-05T01:14:25.595Z,0.51
2023-06-05T01:15:25.614Z,0.50
2023-06-05T01:16:25.625Z,0.51
2023-06-05T01:17:25.616Z,0.50
2023-06-05T01:18:25.591Z,0.51
2023-06-05T01:19:25.600Z,0.51
2023-06-05T01:20:25.599Z,0.51
2023-06-05T01:21:25.600Z,0.50
2023-06-05T01:22:25.611Z,0.51
2023-06-05T01:23:25.653Z,0.50
2023-06-05T01:24:25.632Z,0.52
2023-06-05T01:25:25.647Z,0.51
2023-06-05T01:26:25.694Z,0.51
2023-06-05T01:27:25.689Z,0.51
2023-06-05T01:28:25.680Z,0.50
2023-06-05T01:29:25.669Z,0.50
2023-06-05T01:30:25.690Z,0.52
2023-06-05T01:31:25.776Z,0.52
2023-06-05T01:32:25.728Z,0.52
2023-06-05T01:33:25.699Z,0.50
2023-06-05T01:34:25.715Z,0.51
2023-06-05T01:35:25.713Z,0.50
2023-06-05T01:36:25.713Z,0.51
2023-06-05T01:37:25.721Z,0.52
2023-06-05T01:38:25.730Z,0.51
2023-06-05T01:39:25.720Z,0.51
2023-06-05T01:40:25.738Z,0.51
2023-06-05T01:41:25.742Z,0.51
2023-06-05T01:42:25.745Z,0.51
2023-06-05T01:43:25.748Z,0.51
2023-06-05T01:44:25.767Z,0.51
2023-06-05T01:45:25.761Z,0.52
2023-06-05T01:46:25.872Z,0.51
2023-06-05T01:47:25.812Z,0.52
2023-06-05T01:48:25.793Z,0.51
2023-06-05T01:49:25.804Z,0.51
2023-06-05T01:50:25.808Z,0.52
2023-06-05T01:51:25.811Z,0.51
2023-06-05T01:52:25.813Z,0.51
2023-06-05T01:53:25.834Z,0.51
2023-06-05T01:54:25.863Z,0.51
2023-06-05T01:55:25.863Z,0.52
2023-06-05T01:56:25.870Z,0.51
2023-06-05T01:57:25.867Z,0.51
2023-06-05T01:58:25.877Z,0.51
2023-06-05T01:59:25.886Z,0.51
2023-06-05T02:00:25.901Z,0.51
2023-06-05T02:01:25.928Z,0.50
2023-06-05T02:02:25.935Z,0.52
2023-06-05T02:03:26.094Z,0.51
2023-06-05T02:04:25.924Z,0.51
2023-06-05T02:05:25.938Z,0.51
2023-06-05T02:06:25.936Z,0.50
2023-06-05T02:07:25.926Z,0.51
2023-06-05T02:08:25.937Z,0.51
2023-06-05T02:09:25.930Z,0.51
2023-06-05T02:10:25.958Z,0.52
2023-06-05T02:11:25.959Z,0.51
2023-06-05T02:12:25.960Z,0.50
2023-06-05T02:13:26.087Z,0.50
2023-06-05T02:14:25.976Z,0.51
2023-06-05T02:15:25.994Z,0.51
2023-06-05T02:16:26.012Z,0.51
2023-06-05T02:17:25.988Z,0.50
2023-06-05T02:18:25.964Z,0.51
2023-06-05T02:19:25.969Z,0.51
2023-06-05T02:20:25.957Z,0.51
2023-06-05T02:21:25.959Z,0.52
2023-06-05T02:22:25.950Z,0.50
2023-06-05T02:23:26.039Z,0.51
2023-06-05T02:24:25.970Z,0.51
2023-06-05T02:25:25.955Z,0.52
2023-06-05T02:26:25.957Z,0.51
2023-06-05T02:27:25.952Z,0.51
2023-06-05T02:28:25.963Z,0.51
2023-06-05T02:29:25.962Z,0.52
2023-06-05T02:30:25.984Z,0.51
2023-06-05T02:31:26.023Z,0.52
2023-06-05T02:32:25.981Z,0.51
2023-06-05T02:33:25.965Z,0.51
2023-06-05T02:34:26.116Z,0.51
2023-06-05T02:35:25.961Z,0.51
2023-06-05T02:36:25.949Z,0.51
2023-06-05T02:37:25.946Z,0.51
2023-06-05T02:38:25.920Z,0.51
2023-06-05T02:39:25.930Z,0.52
2023-06-05T02:40:25.932Z,0.52
2023-06-05T02:41:25.930Z,0.50
2023-06-05T02:42:25.945Z,0.50
2023-06-05T02:43:25.937Z,0.51
2023-06-05T02:44:25.932Z,0.51
2023-06-05T02:45:25.936Z,0.52
2023-06-05T02:46:26.091Z,0.52
2023-06-05T02:47:25.989Z,0.51
2023-06-05T02:48:25.915Z,0.51
2023-06-05T02:49:25.900Z,0.52
2023-06-05T02:50:25.910Z,0.52
2023-06-05T02:51:25.922Z,0.51
2023-06-05T02:52:25.899Z,0.52
2023-06-05T02:53:25.893Z,0.51
2023-06-05T02:54:25.892Z,0.51
2023-06-05T02:55:25.914Z,0.52
2023-06-05T02:56:25.891Z,0.51
2023-06-05T02:57:25.894Z,0.51
2023-06-05T02:58:25.879Z,0.51
2023-06-05T02:59:25.904Z,0.51
2023-06-05T03:00:25.872Z,0.51
2023-06-05T03:01:25.931Z,0.51
2023-06-05T03:02:25.905Z,0.51
2023-06-05T03:03:25.957Z,0.52
2023-06-05T03:04:25.853Z,0.51
2023-06-05T03:05:26.362Z,0.51
2023-06-05T03:06:25.840Z,0.51
2023-06-05T03:07:25.847Z,0.50
2023-06-05T03:08:25.833Z,0.51
2023-06-05T03:09:25.829Z,0.51
2023-06-05T03:10:25.832Z,0.50
2023-06-05T03:11:25.860Z,0.51
2023-06-05T03:12:25.866Z,0.51
2023-06-05T03:13:25.839Z,0.51
2023-06-05T03:14:25.818Z,0.50
2023-06-05T03:15:25.815Z,0.51
2023-06-05T03:16:25.918Z,0.51
2023-06-05T03:17:25.857Z,0.51
2023-06-05T03:18:25.815Z,0.51
2023-06-05T03:19:25.816Z,0.51
2023-06-05T03:20:25.816Z,0.51
2023-06-05T03:21:25.819Z,0.51
2023-06-05T03:22:25.838Z,0.51
2023-06-05T03:23:25.842Z,0.51
2023-06-05T03:24:25.882Z,0.51
2023-06-05T03:25:26.452Z,0.50
2023-06-05T03:26:25.820Z,0.51
2023-06-05T03:27:25.814Z,0.51
2023-06-05T03:28:25.795Z,0.51
2023-06-05T03:29:25.796Z,0.52
2023-06-05T03:30:25.796Z,0.51
2023-06-05T03:31:25.815Z,0.51
2023-06-05T03:32:25.828Z,0.51
2023-06-05T03:33:25.815Z,0.51
2023-06-05T03:34:25.779Z,0.51
2023-06-05T03:35:25.775Z,0.51
2023-06-05T03:36:25.771Z,0.52
2023-06-05T03:37:25.781Z,0.51
2023-06-05T03:38:25.779Z,0.51
2023-06-05T03:39:25.784Z,0.52
2023-06-05T03:40:25.875Z,0.52
2023-06-05T03:41:25.793Z,0.51
2023-06-05T03:42:25.788Z,0.51
2023-06-05T03:43:25.794Z,0.51
2023-06-05T03:44:25.820Z,0.51
2023-06-05T03:45:25.786Z,0.51
2023-06-05T03:46:25.912Z,0.51
2023-06-05T03:47:25.854Z,0.51
2023-06-05T03:48:25.803Z,0.51
2023-06-05T03:49:25.805Z,0.51
2023-06-05T03:50:25.787Z,0.51
2023-06-05T03:51:25.805Z,0.51
2023-06-05T03:52:25.824Z,0.52
2023-06-05T03:53:25.802Z,0.51
2023-06-05T03:54:25.813Z,0.51
2023-06-05T03:55:25.817Z,0.51
2023-06-05T03:56:25.822Z,0.51
2023-06-05T03:57:25.837Z,0.52
2023-06-05T03:58:25.823Z,0.51
2023-06-05T03:59:25.829Z,0.51
2023-06-05T04:00:25.831Z,0.51
2023-06-05T04:01:25.847Z,0.52
2023-06-05T04:02:25.938Z,0.50
2023-06-05T04:03:26.000Z,0.51
2023-06-05T04:04:25.874Z,0.51
2023-06-05T04:05:25.867Z,0.51
2023-06-05T04:06:25.872Z,0.51
2023-06-05T04:07:25.874Z,0.51
2023-06-05T04:08:25.875Z,0.52
2023-06-05T04:09:25.887Z,0.51
2023-06-05T04:10:25.892Z,0.51
2023-06-05T04:11:25.907Z,0.51
2023-06-05T04:12:25.903Z,0.51
2023-06-05T04:13:25.906Z,0.51
2023-06-05T04:14:25.924Z,0.51
2023-06-05T04:15:25.918Z,0.51
2023-06-05T04:16:25.963Z,0.52
2023-06-05T04:17:25.939Z,0.52
2023-06-05T04:18:25.948Z,0.52
2023-06-05T04:19:25.928Z,0.51
2023-06-05T04:20:25.923Z,0.52
2023-06-05T04:21:25.935Z,0.51
2023-06-05T04:22:25.941Z,0.51
2023-06-05T04:23:25.969Z,0.53
2023-06-05T04:24:25.951Z,0.52
2023-06-05T04:25:25.957Z,0.51
2023-06-05T04:26:25.957Z,0.51
2023-06-05T04:27:25.956Z,0.51
2023-06-05T04:28:25.949Z,0.52
2023-06-05T04:29:25.959Z,0.52
2023-06-05T04:30:25.960Z,0.52
2023-06-05T04:31:26.159Z,0.51
2023-06-05T04:32:26.008Z,0.51
2023-06-05T04:33:25.972Z,0.51
2023-06-05T04:34:25.965Z,0.51
2023-06-05T04:35:25.965Z,0.51
2023-06-05T04:36:25.965Z,0.52
2023-06-05T04:37:25.974Z,0.51
2023-06-05T04:38:25.976Z,0.50
2023-06-05T04:39:25.989Z,0.51
2023-06-05T04:40:25.986Z,0.51
2023-06-05T04:41:26.014Z,0.52
2023-06-05T04:42:25.988Z,0.52
2023-06-05T04:43:25.989Z,0.51
2023-06-05T04:44:25.995Z,0.51
2023-06-05T04:45:25.990Z,0.51
2023-06-05T04:46:26.115Z,0.52
2023-06-05T04:47:26.022Z,0.52
2023-06-05T04:48:26.026Z,0.50
2023-06-05T04:49:25.998Z,0.52
2023-06-05T04:50:26.015Z,0.51
2023-06-05T04:51:26.018Z,0.51
2023-06-05T04:52:26.016Z,0.51
2023-06-05T04:53:26.024Z,0.51
2023-06-05T04:54:26.029Z,0.51
2023-06-05T04:55:26.035Z,0.51
2023-06-05T04:56:26.084Z,0.51
2023-06-05T04:57:26.027Z,0.51
2023-06-05T04:58:26.037Z,0.50
2023-06-05T04:59:26.062Z,0.52
2023-06-05T05:00:26.053Z,0.51
2023-06-05T05:01:26.097Z,0.52
2023-06-05T05:02:26.067Z,0.52
2023-06-05T05:03:26.060Z,0.52
2023-06-05T05:04:26.108Z,0.52
2023-06-05T05:05:26.064Z,0.51
2023-06-05T05:06:26.078Z,0.52
2023-06-05T05:07:26.556Z,0.51
2023-06-05T05:08:26.083Z,0.52
2023-06-05T05:09:26.123Z,0.52
2023-06-05T05:10:26.086Z,0.51
2023-06-05T05:11:26.100Z,0.52
2023-06-05T05:12:26.109Z,0.51
2023-06-05T05:13:26.098Z,0.50
2023-06-05T05:14:26.135Z,0.51
2023-06-05T05:15:27.005Z,0.52
2023-06-05T05:16:26.146Z,0.51
2023-06-05T05:17:26.116Z,0.51
2023-06-05T05:18:26.095Z,0.52
2023-06-05T05:19:26.091Z,0.52
2023-06-05T05:20:27.010Z,0.51
2023-06-05T05:21:26.125Z,0.50
2023-06-05T05:22:26.124Z,0.51
2023-06-05T05:23:26.140Z,0.52
2023-06-05T05:24:26.116Z,0.51
2023-06-05T05:25:29.310Z,0.53
2023-06-05T05:26:26.105Z,0.53
2023-06-05T05:27:26.090Z,0.53
2023-06-05T05:28:26.524Z,0.53
2023-06-05T05:29:26.081Z,0.55
2023-06-05T05:30:26.074Z,0.56
2023-06-05T05:31:26.576Z,0.58
2023-06-05T05:32:26.086Z,0.62
2023-06-05T05:33:26.056Z,0.63
2023-06-05T05:34:26.114Z,0.64
2023-06-05T05:35:26.059Z,0.66
2023-06-05T05:36:26.027Z,0.69
2023-06-05T05:37:26.035Z,0.77
2023-06-05T05:38:26.026Z,0.75
2023-06-05T05:39:26.513Z,0.75
2023-06-05T05:40:26.013Z,0.80
2023-06-05T05:41:26.018Z,0.83
2023-06-05T05:42:26.183Z,0.87
2023-06-05T05:43:25.985Z,0.87
2023-06-05T05:44:26.004Z,0.94
2023-06-05T05:45:25.973Z,0.98
2023-06-05T05:46:27.747Z,1.03
2023-06-05T05:47:26.005Z,1.08
2023-06-05T05:48:25.946Z,1.12
2023-06-05T05:49:25.939Z,1.14
2023-06-05T05:50:25.930Z,1.14
2023-06-05T05:51:26.021Z,1.17
2023-06-05T05:52:25.923Z,1.21
2023-06-05T05:53:25.939Z,1.22
2023-06-05T05:54:25.900Z,1.26
2023-06-05T05:55:25.898Z,1.30
2023-06-05T05:56:26.037Z,1.34
2023-06-05T05:57:26.024Z,1.40
2023-06-05T05:58:41.517Z,1.43
2023-06-05T05:59:33.274Z,1.43
2023-06-05T06:00:57.664Z,1.43
2023-06-05T06:01:25.859Z,1.44
2023-06-05T06:02:26.111Z,1.49
2023-06-05T06:03:26.418Z,1.59
2023-06-05T06:05:33.228Z,1.45
2023-06-05T06:06:25.833Z,1.45
2023-06-05T06:07:26.101Z,1.53
2023-06-05T06:08:25.838Z,1.73
2023-06-05T06:09:25.835Z,2.11
2023-06-05T06:10:25.805Z,2.71
2023-06-05T06:11:25.837Z,2.92
2023-06-05T06:12:26.063Z,2.98
2023-06-05T06:13:25.787Z,2.97
2023-06-05T06:14:26.173Z,3.06
2023-06-05T06:15:25.776Z,3.15
2023-06-05T06:16:25.825Z,3.29
2023-06-05T06:17:26.098Z,3.39
2023-06-05T06:18:25.743Z,3.50
2023-06-05T06:19:25.766Z,3.63
2023-06-05T06:20:25.755Z,3.69
2023-06-05T06:21:26.046Z,3.74
2023-06-05T06:22:25.752Z,3.88
2023-06-05T06:23:26.335Z,3.95
2023-06-05T06:24:25.785Z,4.06
2023-06-05T06:25:25.706Z,4.14
2023-06-05T06:26:26.039Z,3.82
2023-06-05T06:28:24.786Z,3.70
2023-06-05T06:29:25.672Z,3.71
2023-06-05T06:30:26.330Z,3.54
2023-06-05T06:31:25.835Z,3.56
2023-06-05T06:32:25.682Z,3.25
2023-06-05T06:33:25.641Z,3.08
2023-06-05T06:35:25.625Z,2.65
2023-06-05T06:36:26.047Z,2.27
2023-06-05T06:37:25.640Z,2.27
2023-06-05T06:38:25.615Z,2.32
2023-06-05T06:39:25.596Z,2.21
2023-06-05T06:40:25.598Z,2.26
2023-06-05T06:41:29.240Z,2.25
2023-06-05T06:44:28.790Z,2.27
2023-06-05T06:45:26.109Z,2.27
2023-06-05T06:47:25.759Z,2.27
2023-06-05T06:48:25.584Z,2.29
2023-06-05T06:49:25.677Z,2.31
2023-06-05T06:50:26.003Z,2.30
2023-06-05T06:51:26.554Z,2.29
2023-06-05T06:52:26.394Z,2.21
2023-06-05T06:53:28.723Z,2.21
2023-06-05T06:54:26.525Z,2.14
2023-06-05T06:55:26.516Z,2.22
2023-06-05T06:56:25.559Z,2.22
2023-06-05T06:57:28.695Z,2.18
2023-06-05T06:58:25.732Z,2.21
2023-06-05T06:59:25.747Z,2.18
2023-06-05T07:00:26.462Z,2.17
2023-06-05T07:01:25.661Z,2.14
2023-06-05T07:02:25.528Z,2.17
2023-06-05T07:03:25.529Z,2.15
2023-06-05T07:04:41.046Z,2.15
2023-06-05T07:05:25.442Z,2.16
2023-06-05T07:06:25.584Z,2.17
2023-06-05T07:07:25.436Z,2.17
2023-06-05T07:08:25.438Z,2.18
2023-06-05T07:09:28.636Z,2.13
2023-06-05T07:10:25.793Z,2.16
2023-06-05T07:11:25.808Z,2.16
2023-06-05T07:12:25.651Z,2.16
2023-06-05T07:13:25.401Z,2.16
2023-06-05T07:14:28.582Z,2.13
2023-06-05T07:15:28.570Z,2.16
2023-06-05T07:16:25.583Z,2.16
2023-06-05T07:17:25.589Z,2.16
2023-06-05T07:18:25.382Z,2.16
2023-06-05T07:19:25.367Z,2.16
2023-06-05T07:20:32.785Z,2.14
2023-06-05T07:21:25.813Z,2.16
2023-06-05T07:22:26.693Z,2.16
2023-06-05T07:23:25.381Z,2.18
2023-06-05T07:24:25.361Z,2.20
2023-06-05T07:25:26.375Z,2.22
2023-06-05T07:26:25.439Z,2.25
2023-06-05T07:27:25.586Z,2.19
2023-06-05T07:28:25.953Z,1.88
2023-06-05T07:29:25.653Z,1.80
2023-06-05T07:30:28.858Z,1.98
2023-06-05T07:31:28.845Z,1.99
2023-06-05T07:32:29.729Z,1.99
2023-06-05T07:33:31.216Z,1.99
2023-06-05T07:34:29.073Z,1.99
2023-06-05T07:35:29.363Z,1.99
2023-06-05T07:36:26.694Z,1.99
2023-06-05T07:37:25.617Z,2.02
2023-06-05T07:39:25.560Z,1.99
2023-06-05T07:40:25.595Z,2.01
2023-06-05T07:41:25.549Z,2.05
2023-06-05T07:42:28.783Z,2.09
2023-06-05T07:43:25.540Z,1.99
2023-06-05T07:44:25.846Z,2.02
2023-06-05T07:45:25.761Z,2.04
2023-06-05T07:46:25.899Z,2.08
2023-06-05T07:47:33.030Z,2.19
2023-06-05T07:48:25.500Z,1.99
2023-06-05T07:49:25.515Z,2.03
2023-06-05T07:51:32.871Z,1.99
2023-06-05T07:52:25.588Z,2.00
2023-06-05T07:53:41.190Z,2.01
2023-06-05T07:54:28.655Z,1.99
2023-06-05T07:55:25.446Z,1.98
2023-06-05T07:56:25.448Z,1.99
2023-06-05T07:57:25.835Z,1.75
2023-06-05T07:58:28.609Z,1.77
2023-06-05T07:59:28.650Z,1.83
2023-06-05T08:00:32.825Z,1.72
2023-06-05T08:01:26.395Z,1.67
2023-06-05T08:02:25.849Z,1.59
2023-06-05T08:03:32.983Z,1.50
2023-06-05T08:04:25.538Z,1.50
2023-06-05T08:05:25.389Z,1.61
2023-06-05T08:06:25.416Z,1.26
2023-06-05T08:07:25.373Z,1.14
2023-06-05T08:08:25.360Z,1.13
2023-06-05T08:09:25.405Z,1.20
2023-06-05T08:10:25.336Z,1.32
2023-06-05T08:11:25.345Z,1.35
2023-06-05T08:12:25.580Z,1.38
2023-06-05T08:13:25.567Z,1.43
2023-06-05T08:14:26.333Z,1.50
2023-06-05T08:15:25.336Z,1.55
2023-06-05T08:16:26.347Z,1.64
2023-06-05T08:17:25.368Z,1.46
2023-06-05T08:18:25.294Z,1.33
2023-06-05T08:19:25.284Z,1.22
2023-06-05T08:20:25.286Z,1.24
2023-06-05T08:21:25.280Z,1.20
2023-06-05T08:22:25.626Z,1.26
2023-06-05T08:23:26.270Z,1.13
2023-06-05T08:24:25.278Z,1.07
2023-06-05T08:25:25.279Z,0.95
2023-06-05T08:26:25.289Z,0.96
2023-06-05T08:27:25.597Z,1.04
2023-06-05T08:28:25.299Z,1.16
2023-06-05T08:29:25.313Z,1.15
2023-06-05T08:30:25.291Z,0.90
2023-06-05T08:31:25.289Z,0.88
2023-06-05T08:32:25.650Z,0.90
2023-06-05T08:33:25.283Z,0.95
2023-06-05T08:34:25.304Z,0.99
2023-06-05T08:35:25.325Z,0.98
2023-06-05T08:36:25.491Z,0.95
2023-06-05T08:37:26.341Z,1.01
2023-06-05T08:38:42.356Z,1.02
2023-06-05T08:39:25.356Z,1.02
2023-06-05T08:40:25.342Z,0.97
2023-06-05T08:41:25.613Z,0.92
2023-06-05T08:42:26.643Z,1.03
2023-06-05T08:43:25.328Z,1.14
2023-06-05T08:44:25.339Z,1.21
2023-06-05T08:45:25.313Z,1.31
2023-06-05T08:47:28.638Z,1.29
2023-06-05T08:48:28.509Z,1.29
2023-06-05T08:49:26.306Z,1.10
2023-06-05T08:51:57.104Z,0.99
2023-06-05T08:52:25.610Z,0.98
2023-06-05T08:53:32.668Z,0.87
2023-06-05T08:54:28.838Z,0.88
2023-06-05T08:55:25.257Z,0.96
2023-06-05T08:56:25.325Z,0.93
2023-06-05T08:57:25.244Z,0.89
2023-06-05T08:58:25.247Z,0.91
2023-06-05T08:59:25.882Z,0.77
2023-06-05T09:00:25.238Z,0.77
2023-06-05T09:01:25.243Z,0.76
2023-06-05T09:02:25.999Z,0.74
2023-06-05T09:03:25.319Z,0.75
2023-06-05T09:04:27.193Z,0.74
2023-06-05T09:05:25.189Z,0.75
2023-06-05T09:06:25.196Z,0.75
2023-06-05T09:07:25.189Z,0.74
2023-06-05T09:08:25.171Z,0.71
2023-06-05T09:09:25.148Z,0.71
2023-06-05T09:10:25.167Z,0.69
2023-06-05T09:11:25.177Z,0.70
2023-06-05T09:12:25.141Z,0.70
2023-06-05T09:13:25.126Z,0.70
2023-06-05T09:14:28.345Z,0.65
2023-06-05T09:15:25.140Z,0.65
2023-06-05T09:16:25.208Z,0.65
2023-06-05T09:17:25.337Z,0.66
2023-06-05T09:18:32.530Z,0.66
2023-06-05T09:19:25.094Z,0.65
2023-06-05T09:20:25.126Z,0.66
2023-06-05T09:21:25.086Z,0.67
2023-06-05T09:22:25.081Z,0.67
2023-06-05T09:23:25.828Z,0.68
2023-06-05T09:24:25.380Z,0.67
2023-06-05T09:25:25.297Z,0.65
2023-06-05T09:26:25.297Z,0.60
2023-06-05T09:27:25.700Z,0.63
2023-06-05T09:28:25.640Z,0.62
2023-06-05T09:29:28.576Z,0.63
2023-06-05T09:30:25.417Z,0.60
2023-06-05T09:31:25.480Z,0.54
2023-06-05T09:32:25.381Z,0.50
2023-06-05T09:33:25.648Z,0.50
2023-06-05T09:34:26.280Z,0.50
2023-06-05T09:36:25.280Z,0.52
2023-06-05T09:37:25.910Z,0.53
2023-06-05T09:38:25.671Z,0.52
2023-06-05T09:39:28.624Z,0.50
2023-06-05T09:40:25.424Z,0.51
2023-06-05T09:41:25.417Z,0.50
2023-06-05T09:42:25.927Z,0.52
2023-06-05T09:43:28.638Z,0.53
2023-06-05T09:44:25.411Z,0.52
2023-06-05T09:45:25.395Z,0.52
2023-06-05T09:46:25.425Z,0.53
2023-06-05T09:47:25.946Z,0.55
2023-06-05T09:48:25.388Z,0.55
2023-06-05T09:49:29.256Z,0.58
2023-06-05T09:50:25.462Z,0.58
2023-06-05T09:51:25.811Z,0.58
2023-06-05T09:52:26.926Z,0.59
2023-06-05T09:53:25.852Z,0.56
2023-06-05T09:54:26.589Z,0.57
2023-06-05T09:55:25.576Z,0.59
2023-06-05T09:56:25.572Z,0.61
2023-06-05T09:57:25.598Z,0.58
2023-06-05T09:58:25.616Z,0.60
2023-06-05T09:59:26.632Z,0.63
2023-06-05T10:00:25.693Z,0.64
2023-06-05T10:01:26.317Z,0.63
2023-06-05T10:03:25.687Z,0.61
2023-06-05T10:04:33.120Z,0.61
2023-06-05T10:05:26.159Z,0.61
2023-06-05T10:06:25.677Z,0.61
2023-06-05T10:07:25.918Z,0.62
2023-06-05T10:08:25.921Z,0.63
2023-06-05T10:09:29.145Z,0.65
2023-06-05T10:10:25.648Z,0.61
2023-06-05T10:11:25.644Z,0.62
2023-06-05T10:12:26.646Z,0.65
2023-06-05T10:13:25.634Z,0.70
2023-06-05T10:14:33.330Z,0.78
2023-06-05T10:15:26.154Z,0.62
2023-06-05T10:16:29.486Z,0.64
2023-06-05T10:17:25.702Z,0.62
2023-06-05T10:18:25.608Z,0.65
2023-06-05T10:19:25.677Z,0.68
2023-06-05T10:20:27.176Z,0.74
2023-06-05T10:21:25.801Z,0.84
2023-06-05T10:22:26.692Z,0.83
2023-06-05T10:23:25.845Z,0.72
2023-06-05T10:24:25.806Z,0.72
2023-06-05T10:25:31.315Z,0.68
2023-06-05T10:26:26.180Z,0.68
2023-06-05T10:27:25.825Z,0.68
2023-06-05T10:28:25.872Z,0.69
2023-06-05T10:29:25.815Z,0.72
2023-06-05T10:30:26.196Z,0.75
2023-06-05T10:31:25.812Z,0.77
2023-06-05T10:32:26.179Z,0.77
2023-06-05T10:33:25.763Z,0.78
2023-06-05T10:34:26.185Z,0.77
2023-06-05T10:35:25.751Z,0.77
2023-06-05T10:36:25.748Z,0.75
2023-06-05T10:37:25.731Z,0.76
2023-06-05T10:38:25.730Z,0.72
2023-06-05T10:39:25.724Z,0.70
2023-06-05T10:40:25.722Z,0.65
2023-06-05T10:41:25.720Z,0.64
2023-06-05T10:42:26.190Z,0.66
2023-06-05T10:43:25.714Z,0.68
2023-06-05T10:44:33.091Z,0.75
2023-06-05T10:45:25.695Z,0.75
2023-06-05T10:46:25.700Z,0.76
2023-06-05T10:47:26.218Z,0.76
2023-06-05T10:48:25.686Z,0.76
2023-06-05T10:49:25.669Z,0.79
2023-06-05T10:50:25.658Z,0.76
2023-06-05T10:51:25.647Z,0.75
2023-06-05T10:52:25.680Z,0.76
2023-06-05T10:53:25.643Z,0.73
2023-06-05T10:54:25.657Z,0.73
2023-06-05T10:55:25.618Z,0.74
2023-06-05T10:56:25.609Z,0.73
2023-06-05T10:57:25.603Z,0.68
2023-06-05T10:58:25.673Z,0.64
2023-06-05T10:59:25.588Z,0.66
2023-06-05T11:00:25.707Z,0.63
2023-06-05T11:01:25.619Z,0.68
2023-06-05T11:02:25.666Z,0.69
2023-06-05T11:03:25.981Z,0.70
2023-06-05T11:04:25.956Z,0.71
2023-06-05T11:05:26.185Z,0.69
2023-06-05T11:06:25.967Z,0.75
2023-06-05T11:07:26.068Z,0.73
2023-06-05T11:08:26.186Z,0.72
2023-06-05T11:09:25.972Z,0.70
2023-06-05T11:10:25.968Z,0.68
2023-06-05T11:11:25.971Z,0.66
2023-06-05T11:12:25.965Z,0.66
2023-06-05T11:13:26.188Z,0.67
2023-06-05T11:14:25.987Z,0.67
2023-06-05T11:15:26.034Z,0.69
2023-06-05T11:16:26.198Z,0.72
2023-06-05T11:17:26.208Z,0.71
2023-06-05T11:18:26.130Z,0.72
2023-06-05T11:19:26.163Z,0.76
2023-06-05T11:20:34.360Z,0.83
2023-06-05T11:21:26.187Z,0.83
2023-06-05T11:22:26.191Z,0.81
2023-06-05T11:23:26.192Z,0.78
2023-06-05T11:24:26.157Z,0.76
2023-06-05T11:25:26.173Z,0.78
2023-06-05T11:26:26.152Z,0.88
2023-06-05T11:27:26.191Z,0.87
2023-06-05T11:28:26.188Z,0.82
2023-06-05T11:29:26.191Z,0.80
2023-06-05T11:30:43.269Z,0.80
2023-06-05T11:31:26.162Z,0.81
2023-06-05T11:32:26.210Z,0.82
2023-06-05T11:33:26.128Z,0.83
2023-06-05T11:34:26.092Z,0.85
2023-06-05T11:35:26.089Z,0.90
2023-06-05T11:36:26.200Z,0.84
2023-06-05T11:37:26.067Z,0.90
2023-06-05T11:38:26.061Z,0.91
2023-06-05T11:39:26.058Z,0.88
2023-06-05T11:40:26.055Z,0.85
2023-06-05T11:41:26.056Z,0.93
2023-06-05T11:42:26.045Z,0.86
2023-06-05T11:43:26.240Z,0.86
2023-06-05T11:44:26.017Z,0.86
2023-06-05T11:45:26.210Z,0.86
2023-06-05T11:46:26.082Z,0.81
2023-06-05T11:47:26.086Z,0.85
2023-06-05T11:48:26.290Z,0.89
2023-06-05T11:49:25.997Z,0.99
2023-06-05T11:50:26.209Z,0.93
2023-06-05T11:51:25.975Z,0.99
2023-06-05T11:52:26.002Z,0.92
2023-06-05T11:53:25.966Z,0.92
2023-06-05T11:54:25.968Z,0.91
2023-06-05T11:55:26.221Z,0.98
2023-06-05T11:56:41.820Z,0.99
2023-06-05T11:57:26.270Z,1.00
2023-06-05T11:58:25.937Z,1.00
2023-06-05T11:59:26.337Z,1.03
2023-06-05T12:00:26.542Z,1.11
2023-06-05T12:01:26.238Z,1.24
2023-06-05T12:02:26.293Z,1.39
2023-06-05T12:03:25.953Z,1.26
2023-06-05T12:04:25.904Z,1.24
2023-06-05T12:05:26.098Z,1.29
2023-06-05T12:06:25.876Z,1.20
2023-06-05T12:07:26.940Z,1.30
2023-06-05T12:08:26.007Z,1.32
2023-06-05T12:09:25.944Z,1.35
2023-06-05T12:10:25.942Z,1.34
2023-06-05T12:11:25.855Z,1.36
2023-06-05T12:12:27.210Z,1.34
2023-06-05T12:13:25.821Z,1.29
2023-06-05T12:14:25.822Z,1.27
2023-06-05T12:15:25.837Z,1.23
2023-06-05T12:16:26.858Z,1.37
2023-06-05T12:17:26.571Z,1.36
2023-06-05T12:18:25.803Z,1.32
2023-06-05T12:19:25.868Z,1.33
2023-06-05T12:20:26.609Z,1.31
2023-06-05T12:21:25.772Z,1.41
2023-06-05T12:22:26.217Z,1.46
2023-06-05T12:23:25.844Z,1.37
2023-06-05T12:24:26.011Z,1.30
2023-06-05T12:25:27.217Z,1.31
2023-06-05T12:26:25.779Z,1.39
2023-06-05T12:27:26.218Z,1.44
2023-06-05T12:28:25.766Z,1.42
2023-06-05T12:29:25.874Z,1.35
2023-06-05T12:30:25.769Z,1.29
2023-06-05T12:31:25.791Z,1.35
2023-06-05T12:32:25.797Z,1.33
2023-06-05T12:33:25.787Z,1.34
2023-06-05T12:34:26.228Z,1.35
2023-06-05T12:35:25.788Z,1.36
2023-06-05T12:36:25.771Z,1.36
2023-06-05T12:37:25.770Z,1.39
2023-06-05T12:38:26.028Z,1.44
2023-06-05T12:39:26.227Z,1.48
2023-06-05T12:40:36.775Z,1.36
2023-06-05T12:41:26.025Z,1.37
2023-06-05T12:42:25.921Z,1.37
2023-06-05T12:43:26.230Z,1.38
2023-06-05T12:44:25.806Z,1.39
2023-06-05T12:45:25.772Z,1.38
2023-06-05T12:46:26.063Z,1.39
2023-06-05T12:47:26.319Z,1.53
2023-06-05T12:48:26.027Z,1.42
2023-06-05T12:49:25.977Z,1.42
2023-06-05T12:50:25.725Z,1.43
2023-06-05T12:51:25.710Z,1.43
2023-06-05T12:52:25.738Z,1.41
2023-06-05T12:53:25.697Z,1.41
2023-06-05T12:54:25.739Z,1.51
2023-06-05T12:55:26.052Z,1.52
2023-06-05T12:56:25.682Z,1.54
2023-06-05T12:57:25.671Z,1.61
2023-06-05T12:58:25.749Z,1.16
2023-06-05T12:59:25.655Z,0.93
2023-06-05T13:00:25.644Z,1.05
2023-06-05T13:01:25.695Z,1.11
2023-06-05T13:02:25.737Z,1.24
2023-06-05T13:03:25.945Z,1.34
2023-06-05T13:04:25.745Z,1.41
2023-06-05T13:05:25.623Z,1.59
2023-06-05T13:06:25.605Z,1.67
2023-06-05T13:07:25.685Z,1.80
2023-06-05T13:08:25.590Z,1.81
2023-06-05T13:09:25.591Z,1.82
2023-06-05T13:10:25.602Z,1.88
2023-06-05T13:11:25.565Z,1.90
2023-06-05T13:12:25.574Z,1.85
2023-06-05T13:13:25.594Z,1.89
2023-06-05T13:14:25.544Z,1.89
2023-06-05T13:15:25.546Z,1.91
2023-06-05T13:16:25.585Z,1.86
2023-06-05T13:17:25.607Z,1.85
2023-06-05T13:18:25.602Z,1.82
2023-06-05T13:19:25.609Z,1.85
2023-06-05T13:20:25.646Z,1.85
2023-06-05T13:21:24.614Z,1.90
2023-06-05T13:22:25.614Z,1.88
2023-06-05T13:23:25.673Z,1.93
2023-06-05T13:24:25.869Z,1.96
2023-06-05T13:25:25.754Z,1.97
2023-06-05T13:26:25.581Z,2.00
2023-06-05T13:27:25.575Z,2.05
2023-06-05T13:28:25.578Z,2.03
2023-06-05T13:29:25.627Z,2.04
2023-06-05T13:30:25.768Z,1.99